Ravia, Oklahoma
Current Conditions -  °F | °C
As of 10:55 AM on Saturday 20 Dec 2014 (Local Time) from KADM Reporting Station
Overcast Overcast  
Wind Chill: 45°   Ceiling: 1500
Heat Index: 45°   Visibility: 10mi
Dew Point: 39°   Wind: 0mph
Humidity: 81%   Direction: NA
Pressure: 30.27"   Gusts: NA
Location:  34.24°N, 96.75°W
Report Text: KADM 201655Z 00000KT 10SM OVC015 07/04 A3027
Loading
Personal Weather Stations






























Interactive Weather Map New forecast layout! Learn more

10-Day Weather Forecast

Advertisements
Track Severe Weather on mobile